sensor_id;sensor_type;location;lat;lon;timestamp;pressure;altitude;pressure_sealevel;temperature;humidity
44839;BME280;30576;42.098;24.876;2023-04-08T00:00:32;99995.69;;;8.24;59.75
44839;BME280;30576;42.098;24.876;2023-04-08T00:02:58;99993.06;;;8.20;59.26
44839;BME280;30576;42.098;24.876;2023-04-08T00:05:23;99993.03;;;8.32;59.16
44839;BME280;30576;42.098;24.876;2023-04-08T00:07:48;99998.31;;;8.32;60.33
44839;BME280;30576;42.098;24.876;2023-04-08T00:10:14;99996.56;;;8.36;60.61
44839;BME280;30576;42.098;24.876;2023-04-08T00:12:39;99998.31;;;8.28;61.87
44839;BME280;30576;42.098;24.876;2023-04-08T00:15:05;99985.16;;;8.23;61.66
44839;BME280;30576;42.098;24.876;2023-04-08T00:17:30;100008.81;;;8.26;62.81
44839;BME280;30576;42.098;24.876;2023-04-08T00:19:55;100003.56;;;8.41;62.73
44839;BME280;30576;42.098;24.876;2023-04-08T00:22:21;100012.38;;;8.47;63.01
44839;BME280;30576;42.098;24.876;2023-04-08T00:24:46;100005.28;;;8.72;61.95
44839;BME280;30576;42.098;24.876;2023-04-08T00:27:11;100008.81;;;8.63;62.40
44839;BME280;30576;42.098;24.876;2023-04-08T00:29:37;100006.19;;;8.63;62.12
44839;BME280;30576;42.098;24.876;2023-04-08T00:32:02;100010.59;;;8.58;62.67
44839;BME280;30576;42.098;24.876;2023-04-08T00:34:28;100010.59;;;8.58;62.81
44839;BME280;30576;42.098;24.876;2023-04-08T00:36:53;100009.72;;;8.57;62.75
44839;BME280;30576;42.098;24.876;2023-04-08T00:39:18;100001.81;;;8.60;62.75
44839;BME280;30576;42.098;24.876;2023-04-08T00:41:44;100013.22;;;8.61;62.19
44839;BME280;30576;42.098;24.876;2023-04-08T00:44:09;100016.69;;;8.68;61.95
44839;BME280;30576;42.098;24.876;2023-04-08T00:46:35;100012.31;;;8.74;62.81
44839;BME280;30576;42.098;24.876;2023-04-08T00:49:02;100016.72;;;8.48;63.62
44839;BME280;30576;42.098;24.876;2023-04-08T00:51:28;100013.19;;;8.39;63.32
44839;BME280;30576;42.098;24.876;2023-04-08T00:53:53;100005.31;;;8.42;64.93
44839;BME280;30576;42.098;24.876;2023-04-08T00:56:19;100015.84;;;8.32;64.59
44839;BME280;30576;42.098;24.876;2023-04-08T00:58:45;100012.34;;;8.34;64.86
44839;BME280;30576;42.098;24.876;2023-04-08T01:01:17;100014.06;;;8.32;65.27
44839;BME280;30576;42.098;24.876;2023-04-08T01:04:04;100019.34;;;8.35;65.85
44839;BME280;30576;42.098;24.876;2023-04-08T01:06:39;100019.34;;;8.34;66.43
44839;BME280;30576;42.098;24.876;2023-04-08T01:09:07;100016.69;;;8.35;66.58
44839;BME280;30576;42.098;24.876;2023-04-08T01:11:33;100026.38;;;8.55;66.69
44839;BME280;30576;42.098;24.876;2023-04-08T01:14:00;100028.13;;;8.64;66.58
44839;BME280;30576;42.098;24.876;2023-04-08T01:16:29;100034.19;;;8.86;65.29
44839;BME280;30576;42.098;24.876;2023-04-08T01:18:55;100024.53;;;8.88;65.71
44839;BME280;30576;42.098;24.876;2023-04-08T01:21:21;100022.78;;;8.88;65.29
44839;BME280;30576;42.098;24.876;2023-04-08T01:23:58;100030.66;;;8.98;65.06
44839;BME280;30576;42.098;24.876;2023-04-08T01:26:26;100031.53;;;9.01;65.45
44839;BME280;30576;42.098;24.876;2023-04-08T01:28:55;100028.88;;;9.03;65.38
44839;BME280;30576;42.098;24.876;2023-04-08T01:31:21;100024.53;;;8.89;66.30
44839;BME280;30576;42.098;24.876;2023-04-08T01:33:48;100033.28;;;8.99;66.16
44839;BME280;30576;42.098;24.876;2023-04-08T01:36:15;100021.84;;;9.05;66.32
44839;BME280;30576;42.098;24.876;2023-04-08T01:38:40;100016.63;;;8.94;65.79
44839;BME280;30576;42.098;24.876;2023-04-08T01:41:07;100022.75;;;8.99;65.73
44839;BME280;30576;42.098;24.876;2023-04-08T01:43:33;100025.41;;;8.91;66.74
44839;BME280;30576;42.098;24.876;2023-04-08T01:45:59;100027.13;;;9.02;66.41
44839;BME280;30576;42.098;24.876;2023-04-08T01:48:25;100027.09;;;9.06;66.32
44839;BME280;30576;42.098;24.876;2023-04-08T01:50:52;100035.06;;;8.86;67.16
44839;BME280;30576;42.098;24.876;2023-04-08T01:53:18;100029.78;;;8.89;67.43
44839;BME280;30576;42.098;24.876;2023-04-08T01:55:44;100032.41;;;8.88;67.73
44839;BME280;30576;42.098;24.876;2023-04-08T01:58:11;100037.66;;;8.99;67.30
44839;BME280;30576;42.098;24.876;2023-04-08T02:00:41;100047.31;;;9.00;67.78
44839;BME280;30576;42.098;24.876;2023-04-08T02:03:07;100054.31;;;9.05;68.08
44839;BME280;30576;42.098;24.876;2023-04-08T02:05:36;100056.06;;;9.06;67.70
44839;BME280;30576;42.098;24.876;2023-04-08T02:08:01;100050.81;;;8.99;68.72
44839;BME280;30576;42.098;24.876;2023-04-08T02:10:26;100050.78;;;9.06;68.28
44839;BME280;30576;42.098;24.876;2023-04-08T02:12:52;100046.44;;;8.96;69.09
44839;BME280;30576;42.098;24.876;2023-04-08T02:15:17;100036.75;;;9.06;69.25
44839;BME280;30576;42.098;24.876;2023-04-08T02:17:46;100050.81;;;8.95;69.71
44839;BME280;30576;42.098;24.876;2023-04-08T02:20:15;100052.59;;;8.90;70.53
44839;BME280;30576;42.098;24.876;2023-04-08T02:25:21;100054.38;;;8.77;71.21
44839;BME280;30576;42.098;24.876;2023-04-08T02:27:47;100061.38;;;8.74;71.63
44839;BME280;30576;42.098;24.876;2023-04-08T02:30:13;100059.66;;;8.71;72.67
44839;BME280;30576;42.098;24.876;2023-04-08T02:32:39;100064.91;;;8.82;72.40
44839;BME280;30576;42.098;24.876;2023-04-08T02:35:05;100058.75;;;8.85;72.17
44839;BME280;30576;42.098;24.876;2023-04-08T02:37:32;100061.38;;;8.83;72.03
44839;BME280;30576;42.098;24.876;2023-04-08T02:39:57;100060.50;;;8.86;72.30
44839;BME280;30576;42.098;24.876;2023-04-08T02:42:23;100061.38;;;8.83;72.98
44839;BME280;30576;42.098;24.876;2023-04-08T02:44:48;100059.66;;;8.77;73.00
44839;BME280;30576;42.098;24.876;2023-04-08T02:47:13;100057.88;;;8.75;73.51
44839;BME280;30576;42.098;24.876;2023-04-08T02:49:39;100058.75;;;8.82;73.45
44839;BME280;30576;42.098;24.876;2023-04-08T02:52:04;100060.50;;;8.89;73.12
44839;BME280;30576;42.098;24.876;2023-04-08T02:54:30;100058.75;;;8.75;73.48
44839;BME280;30576;42.098;24.876;2023-04-08T02:56:55;100059.63;;;8.84;73.63
44839;BME280;30576;42.098;24.876;2023-04-08T02:59:20;100071.00;;;9.00;73.26
44839;BME280;30576;42.098;24.876;2023-04-08T03:01:46;100070.16;;;8.91;73.63
44839;BME280;30576;42.098;24.876;2023-04-08T03:04:11;100066.63;;;8.91;72.70
44839;BME280;30576;42.098;24.876;2023-04-08T03:06:37;100074.53;;;8.88;73.32
44839;BME280;30576;42.098;24.876;2023-04-08T03:09:02;100078.91;;;8.92;73.33
44839;BME280;30576;42.098;24.876;2023-04-08T03:11:27;100078.91;;;8.84;74.07
44839;BME280;30576;42.098;24.876;2023-04-08T03:13:52;100081.56;;;8.73;74.59
44839;BME280;30576;42.098;24.876;2023-04-08T03:16:18;100078.94;;;8.56;75.18
44839;BME280;30576;42.098;24.876;2023-04-08T03:18:43;100091.22;;;8.71;74.78
44839;BME280;30576;42.098;24.876;2023-04-08T03:21:08;100085.06;;;8.60;75.31
44839;BME280;30576;42.098;24.876;2023-04-08T03:23:34;100080.72;;;8.62;75.86
44839;BME280;30576;42.098;24.876;2023-04-08T03:26:00;100086.81;;;8.36;76.51
44839;BME280;30576;42.098;24.876;2023-04-08T03:28:25;100093.81;;;8.19;77.45
44839;BME280;30576;42.098;24.876;2023-04-08T03:30:50;100091.19;;;8.37;76.79
44839;BME280;30576;42.098;24.876;2023-04-08T03:33:16;100087.69;;;8.40;77.65
44839;BME280;30576;42.098;24.876;2023-04-08T03:35:41;100088.59;;;8.47;77.50
44839;BME280;30576;42.098;24.876;2023-04-08T03:38:06;100084.16;;;8.19;77.76
44839;BME280;30576;42.098;24.876;2023-04-08T03:40:32;100085.91;;;8.02;79.77
44839;BME280;30576;42.098;24.876;2023-04-08T03:42:57;100083.25;;;7.86;79.96
44839;BME280;30576;42.098;24.876;2023-04-08T03:45:23;100074.44;;;7.74;81.30
44839;BME280;30576;42.098;24.876;2023-04-08T03:47:48;100087.56;;;7.72;81.24
44839;BME280;30576;42.098;24.876;2023-04-08T03:50:13;100084.16;;;8.07;80.45
44839;BME280;30576;42.098;24.876;2023-04-08T03:52:39;100064.88;;;7.97;79.61
44839;BME280;30576;42.098;24.876;2023-04-08T03:55:05;100090.25;;;7.98;80.45
44839;BME280;30576;42.098;24.876;2023-04-08T03:57:30;100090.25;;;7.92;80.89
44839;BME280;30576;42.098;24.876;2023-04-08T03:59:55;100095.53;;;8.04;80.52
44839;BME280;30576;42.098;24.876;2023-04-08T04:02:21;100092.06;;;8.16;80.12
44839;BME280;30576;42.098;24.876;2023-04-08T04:04:46;100091.19;;;8.23;79.62
44839;BME280;30576;42.098;24.876;2023-04-08T04:07:11;100095.56;;;8.28;79.11
44839;BME280;30576;42.098;24.876;2023-04-08T04:09:37;100099.13;;;8.45;78.71
44839;BME280;30576;42.098;24.876;2023-04-08T04:12:02;100106.13;;;8.45;78.40
44839;BME280;30576;42.098;24.876;2023-04-08T04:14:27;100108.75;;;8.57;77.89
44839;BME280;30576;42.098;24.876;2023-04-08T04:16:53;100104.38;;;8.68;76.85
44839;BME280;30576;42.098;24.876;2023-04-08T04:19:18;100108.72;;;8.72;76.51
44839;BME280;30576;42.098;24.876;2023-04-08T04:21:43;100099.13;;;8.71;76.48
44839;BME280;30576;42.098;24.876;2023-04-08T04:24:08;100107.88;;;8.80;76.18
44839;BME280;30576;42.098;24.876;2023-04-08T04:26:34;100112.25;;;8.84;76.30
44839;BME280;30576;42.098;24.876;2023-04-08T04:28:59;100114.88;;;8.87;76.01
44839;BME280;30576;42.098;24.876;2023-04-08T04:31:24;100108.72;;;8.83;75.96
44839;BME280;30576;42.098;24.876;2023-04-08T04:33:50;100113.09;;;8.92;76.70
44839;BME280;30576;42.098;24.876;2023-04-08T04:36:16;100116.59;;;8.91;76.64
44839;BME280;30576;42.098;24.876;2023-04-08T04:38:41;100117.50;;;8.94;76.14
44839;BME280;30576;42.098;24.876;2023-04-08T04:41:07;100115.75;;;8.92;76.60
44839;BME280;30576;42.098;24.876;2023-04-08T04:43:32;100121.00;;;9.01;76.90
44839;BME280;30576;42.098;24.876;2023-04-08T04:45:58;100116.56;;;9.06;76.74
44839;BME280;30576;42.098;24.876;2023-04-08T04:48:23;100120.97;;;9.10;75.93
44839;BME280;30576;42.098;24.876;2023-04-08T04:50:57;100120.94;;;9.17;76.30
44839;BME280;30576;42.098;24.876;2023-04-08T04:53:23;100109.53;;;9.24;75.88
44839;BME280;30576;42.098;24.876;2023-04-08T04:55:49;100118.31;;;9.20;75.57
44839;BME280;30576;42.098;24.876;2023-04-08T04:58:14;100117.44;;;9.27;76.10
44839;BME280;30576;42.098;24.876;2023-04-08T05:00:40;100120.03;;;9.41;74.70
44839;BME280;30576;42.098;24.876;2023-04-08T05:03:05;100119.06;;;9.56;74.00
44839;BME280;30576;42.098;24.876;2023-04-08T05:05:30;100117.34;;;9.52;73.92
44839;BME280;30576;42.098;24.876;2023-04-08T05:07:56;100113.84;;;9.45;75.11
44839;BME280;30576;42.098;24.876;2023-04-08T05:10:21;100102.44;;;9.44;74.77
44839;BME280;30576;42.098;24.876;2023-04-08T05:12:46;100122.56;;;9.67;74.30
44839;BME280;30576;42.098;24.876;2023-04-08T05:15:12;100124.31;;;9.56;75.21
44839;BME280;30576;42.098;24.876;2023-04-08T05:17:37;100129.69;;;9.31;76.57
44839;BME280;30576;42.098;24.876;2023-04-08T05:20:02;100130.53;;;9.42;76.59
44839;BME280;30576;42.098;24.876;2023-04-08T05:22:28;100122.63;;;9.48;76.66
44839;BME280;30576;42.098;24.876;2023-04-08T05:24:53;100130.53;;;9.45;76.87
44839;BME280;30576;42.098;24.876;2023-04-08T05:27:19;100131.38;;;9.55;76.64
44839;BME280;30576;42.098;24.876;2023-04-08T05:29:45;100132.28;;;9.45;76.09
44839;BME280;30576;42.098;24.876;2023-04-08T05:32:10;100135.75;;;9.59;76.35
44839;BME280;30576;42.098;24.876;2023-04-08T05:34:36;100141.03;;;9.56;75.65
44839;BME280;30576;42.098;24.876;2023-04-08T05:37:01;100139.28;;;9.55;76.20
44839;BME280;30576;42.098;24.876;2023-04-08T05:39:26;100152.47;;;9.43;76.28
44839;BME280;30576;42.098;24.876;2023-04-08T05:41:52;100156.00;;;9.36;76.74
44839;BME280;30576;42.098;24.876;2023-04-08T05:44:17;100148.16;;;9.06;78.07
44839;BME280;30576;42.098;24.876;2023-04-08T05:46:43;100148.09;;;9.34;77.76
44839;BME280;30576;42.098;24.876;2023-04-08T05:49:08;100146.41;;;9.14;77.44
44839;BME280;30576;42.098;24.876;2023-04-08T05:51:33;100142.00;;;9.23;77.87
44839;BME280;30576;42.098;24.876;2023-04-08T05:53:58;100144.59;;;9.38;77.22
44839;BME280;30576;42.098;24.876;2023-04-08T05:56:24;100142.78;;;9.49;77.77
44839;BME280;30576;42.098;24.876;2023-04-08T05:58:49;100145.31;;;9.80;76.71
44839;BME280;30576;42.098;24.876;2023-04-08T06:01:15;100137.41;;;9.79;74.95
44839;BME280;30576;42.098;24.876;2023-04-08T06:03:40;100137.50;;;9.54;74.48
44839;BME280;30576;42.098;24.876;2023-04-08T06:06:11;100134.88;;;9.53;75.39
44839;BME280;30576;42.098;24.876;2023-04-08T06:08:36;100139.97;;;9.94;73.55
44839;BME280;30576;42.098;24.876;2023-04-08T06:11:02;100136.47;;;9.92;72.32
44839;BME280;30576;42.098;24.876;2023-04-08T06:13:29;100142.69;;;9.77;73.39
44839;BME280;30576;42.098;24.876;2023-04-08T06:15:54;100147.94;;;9.79;73.52
44839;BME280;30576;42.098;24.876;2023-04-08T06:18:19;100145.22;;;9.99;72.71
44839;BME280;30576;42.098;24.876;2023-04-08T06:20:45;100145.13;;;10.11;72.30
44839;BME280;30576;42.098;24.876;2023-04-08T06:23:10;100145.94;;;10.33;71.44
44839;BME280;30576;42.098;24.876;2023-04-08T06:25:36;100152.00;;;10.45;71.69
44839;BME280;30576;42.098;24.876;2023-04-08T06:28:02;100141.38;;;10.54;71.13
44839;BME280;30576;42.098;24.876;2023-04-08T06:30:27;100158.00;;;10.64;69.80
44839;BME280;30576;42.098;24.876;2023-04-08T06:32:52;100160.41;;;10.90;69.36
44839;BME280;30576;42.098;24.876;2023-04-08T06:35:18;100156.34;;;10.53;69.69
44839;BME280;30576;42.098;24.876;2023-04-08T06:37:43;100157.31;;;10.38;69.76
44839;BME280;30576;42.098;24.876;2023-04-08T06:40:08;100159.72;;;10.69;68.54
44839;BME280;30576;42.098;24.876;2023-04-08T06:42:34;100159.59;;;10.86;68.10
44839;BME280;30576;42.098;24.876;2023-04-08T06:45:00;100152.44;;;10.98;67.64
44839;BME280;30576;42.098;24.876;2023-04-08T06:47:25;100155.91;;;11.00;68.25
44839;BME280;30576;42.098;24.876;2023-04-08T06:49:51;100146.00;;;11.26;66.80
44839;BME280;30576;42.098;24.876;2023-04-08T06:52:16;100157.44;;;11.25;66.39
44839;BME280;30576;42.098;24.876;2023-04-08T06:54:41;100158.63;;;10.93;67.93
44839;BME280;30576;42.098;24.876;2023-04-08T06:57:07;100156.84;;;10.97;67.87
44839;BME280;30576;42.098;24.876;2023-04-08T06:59:32;100153.25;;;11.04;66.88
44839;BME280;30576;42.098;24.876;2023-04-08T07:01:57;100151.41;;;11.13;66.89
44839;BME280;30576;42.098;24.876;2023-04-08T07:04:23;100147.97;;;11.01;67.19
44839;BME280;30576;42.098;24.876;2023-04-08T07:06:48;100149.41;;;10.38;69.40
44839;BME280;30576;42.098;24.876;2023-04-08T07:09:14;100141.94;;;10.91;68.11
44839;BME280;30576;42.098;24.876;2023-04-08T07:11:39;100150.56;;;11.09;66.96
44839;BME280;30576;42.098;24.876;2023-04-08T07:14:05;100149.34;;;11.41;64.96
44839;BME280;30576;42.098;24.876;2023-04-08T07:16:30;100146.56;;;11.55;65.69
44839;BME280;30576;42.098;24.876;2023-04-08T07:18:55;100149.19;;;11.56;65.01
44839;BME280;30576;42.098;24.876;2023-04-08T07:21:21;100154.28;;;11.72;65.15
44839;BME280;30576;42.098;24.876;2023-04-08T07:23:46;100147.41;;;11.55;64.59
44839;BME280;30576;42.098;24.876;2023-04-08T07:26:11;100157.34;;;12.08;64.21
44839;BME280;30576;42.098;24.876;2023-04-08T07:28:37;100155.03;;;11.80;63.97
44839;BME280;30576;42.098;24.876;2023-04-08T07:31:09;100157.59;;;11.86;63.76
44839;BME280;30576;42.098;24.876;2023-04-08T07:33:35;100155.31;;;12.28;63.87
44839;BME280;30576;42.098;24.876;2023-04-08T07:36:00;100156.50;;;12.65;62.11
44839;BME280;30576;42.098;24.876;2023-04-08T07:38:26;100157.22;;;12.76;60.71
44839;BME280;30576;42.098;24.876;2023-04-08T07:40:51;100151.34;;;12.57;60.94
44839;BME280;30576;42.098;24.876;2023-04-08T07:43:17;100153.28;;;12.46;59.67
44839;BME280;30576;42.098;24.876;2023-04-08T07:45:43;100158.91;;;12.80;58.36
44839;BME280;30576;42.098;24.876;2023-04-08T07:48:08;100155.72;;;13.61;57.45
44839;BME280;30576;42.098;24.876;2023-04-08T07:50:34;100148.28;;;13.78;56.62
44839;BME280;30576;42.098;24.876;2023-04-08T07:53:00;100143.34;;;13.60;56.84
44839;BME280;30576;42.098;24.876;2023-04-08T07:55:25;100151.16;;;13.68;56.26
44839;BME280;30576;42.098;24.876;2023-04-08T07:57:51;100153.56;;;13.80;55.80
44839;BME280;30576;42.098;24.876;2023-04-08T08:00:16;100153.88;;;14.05;55.72
44839;BME280;30576;42.098;24.876;2023-04-08T08:02:45;100152.63;;;14.23;54.47
44839;BME280;30576;42.098;24.876;2023-04-08T08:05:11;100147.59;;;14.48;54.25
44839;BME280;30576;42.098;24.876;2023-04-08T08:07:37;100152.16;;;14.04;55.86
44839;BME280;30576;42.098;24.876;2023-04-08T08:10:02;100151.16;;;14.08;53.51
44839;BME280;30576;42.098;24.876;2023-04-08T08:12:27;100149.19;;;13.76;57.76
44839;BME280;30576;42.098;24.876;2023-04-08T08:14:53;100151.13;;;13.69;56.68
44839;BME280;30576;42.098;24.876;2023-04-08T08:17:22;100161.34;;;13.44;55.71
44839;BME280;30576;42.098;24.876;2023-04-08T08:19:48;100148.00;;;13.49;57.16
44839;BME280;30576;42.098;24.876;2023-04-08T08:22:14;100144.97;;;14.09;55.13
44839;BME280;30576;42.098;24.876;2023-04-08T08:24:39;100141.59;;;14.78;54.26
44839;BME280;30576;42.098;24.876;2023-04-08T08:27:04;100143.94;;;15.25;53.38
44839;BME280;30576;42.098;24.876;2023-04-08T08:29:30;100139.38;;;15.61;51.07
44839;BME280;30576;42.098;24.876;2023-04-08T08:31:56;100142.78;;;15.02;53.20
44839;BME280;30576;42.098;24.876;2023-04-08T08:34:21;100143.69;;;14.65;53.02
44839;BME280;30576;42.098;24.876;2023-04-08T08:36:47;100142.31;;;15.19;53.25
44839;BME280;30576;42.098;24.876;2023-04-08T08:39:12;100136.50;;;15.04;51.30
44839;BME280;30576;42.098;24.876;2023-04-08T08:41:37;100134.56;;;15.11;53.17
44839;BME280;30576;42.098;24.876;2023-04-08T08:44:06;100145.56;;;14.60;51.79
44839;BME280;30576;42.098;24.876;2023-04-08T08:46:31;100133.81;;;15.06;49.56
44839;BME280;30576;42.098;24.876;2023-04-08T08:48:57;100135.94;;;15.57;48.78
44839;BME280;30576;42.098;24.876;2023-04-08T08:51:22;100130.53;;;15.29;49.73
44839;BME280;30576;42.098;24.876;2023-04-08T08:53:48;100123.09;;;15.09;48.54
44839;BME280;30576;42.098;24.876;2023-04-08T08:56:13;100132.75;;;14.41;53.00
44839;BME280;30576;42.098;24.876;2023-04-08T08:58:38;100131.41;;;14.22;50.95
44839;BME280;30576;42.098;24.876;2023-04-08T09:03:51;100123.28;;;14.29;54.04
44839;BME280;30576;42.098;24.876;2023-04-08T09:06:30;100120.00;;;14.56;52.85
44839;BME280;30576;42.098;24.876;2023-04-08T09:08:56;100120.44;;;14.75;52.04
44839;BME280;30576;42.098;24.876;2023-04-08T09:11:21;100126.28;;;14.89;50.71
44839;BME280;30576;42.098;24.876;2023-04-08T09:13:47;100118.88;;;14.67;50.87
44839;BME280;30576;42.098;24.876;2023-04-08T09:16:13;100121.88;;;14.52;53.89
44839;BME280;30576;42.098;24.876;2023-04-08T09:18:40;100119.59;;;14.37;52.66
44839;BME280;30576;42.098;24.876;2023-04-08T09:21:10;100120.78;;;14.61;52.54
44839;BME280;30576;42.098;24.876;2023-04-08T09:23:43;100122.63;;;14.93;52.21
44839;BME280;30576;42.098;24.876;2023-04-08T09:26:15;100131.22;;;14.68;52.84
44839;BME280;30576;42.098;24.876;2023-04-08T09:28:41;100120.47;;;14.73;52.03
44839;BME280;30576;42.098;24.876;2023-04-08T09:31:20;100116.06;;;14.74;51.52
44839;BME280;30576;42.098;24.876;2023-04-08T09:33:46;100121.47;;;15.03;50.59
44839;BME280;30576;42.098;24.876;2023-04-08T09:36:13;100118.25;;;14.92;52.13
44839;BME280;30576;42.098;24.876;2023-04-08T09:38:38;100107.94;;;14.80;50.98
44839;BME280;30576;42.098;24.876;2023-04-08T09:41:05;100108.97;;;15.07;51.00
44839;BME280;30576;42.098;24.876;2023-04-08T09:43:31;100106.13;;;14.80;50.60
44839;BME280;30576;42.098;24.876;2023-04-08T09:45:58;100108.72;;;14.83;49.57
44839;BME280;30576;42.098;24.876;2023-04-08T09:48:26;100097.97;;;15.21;46.84
44839;BME280;30576;42.098;24.876;2023-04-08T09:50:56;100098.34;;;15.70;47.58
44839;BME280;30576;42.098;24.876;2023-04-08T09:55:51;100102.25;;;15.27;50.70
44839;BME280;30576;42.098;24.876;2023-04-08T10:01:06;100103.59;;;16.03;48.81
44839;BME280;30576;42.098;24.876;2023-04-08T10:03:48;100103.00;;;16.50;47.50
44839;BME280;30576;42.098;24.876;2023-04-08T10:06:14;100095.72;;;16.81;45.75
44839;BME280;30576;42.098;24.876;2023-04-08T10:08:39;100097.09;;;16.40;47.09
44839;BME280;30576;42.098;24.876;2023-04-08T10:11:05;100097.56;;;15.98;46.66
44839;BME280;30576;42.098;24.876;2023-04-08T10:13:31;100095.75;;;16.26;46.45
44839;BME280;30576;42.098;24.876;2023-04-08T10:16:30;100088.94;;;16.18;45.78
44839;BME280;30576;42.098;24.876;2023-04-08T10:18:50;100088.91;;;16.19;46.36
44839;BME280;30576;42.098;24.876;2023-04-08T10:24:01;100087.81;;;16.25;44.60
44839;BME280;30576;42.098;24.876;2023-04-08T10:26:37;100080.34;;;15.50;47.16
44839;BME280;30576;42.098;24.876;2023-04-08T10:31:43;100078.63;;;15.16;48.24
44839;BME280;30576;42.098;24.876;2023-04-08T10:34:14;100077.94;;;15.40;45.91
44839;BME280;30576;42.098;24.876;2023-04-08T10:36:42;100074.84;;;15.86;46.22
44839;BME280;30576;42.098;24.876;2023-04-08T10:39:08;100076.91;;;15.76;45.43
44839;BME280;30576;42.098;24.876;2023-04-08T10:41:33;100073.22;;;16.10;45.29
44839;BME280;30576;42.098;24.876;2023-04-08T10:44:01;100063.25;;;16.43;43.85
44839;BME280;30576;42.098;24.876;2023-04-08T10:46:27;100062.06;;;16.79;42.89
44839;BME280;30576;42.098;24.876;2023-04-08T10:48:59;100050.41;;;17.08;42.29
44839;BME280;30576;42.098;24.876;2023-04-08T10:51:29;100055.88;;;16.78;45.32
44839;BME280;30576;42.098;24.876;2023-04-08T10:53:55;100059.78;;;16.41;45.95
44839;BME280;30576;42.098;24.876;2023-04-08T10:56:29;100057.81;;;16.20;44.10
44839;BME280;30576;42.098;24.876;2023-04-08T10:58:54;100057.31;;;16.62;44.69
44839;BME280;30576;42.098;24.876;2023-04-08T11:01:24;100057.94;;;16.70;46.26
44839;BME280;30576;42.098;24.876;2023-04-08T11:03:49;100052.75;;;16.39;44.56
44839;BME280;30576;42.098;24.876;2023-04-08T11:06:15;100046.41;;;16.43;46.79
44839;BME280;30576;42.098;24.876;2023-04-08T11:08:41;100048.50;;;16.60;46.73
44839;BME280;30576;42.098;24.876;2023-04-08T11:11:08;100046.53;;;16.40;46.23
44839;BME280;30576;42.098;24.876;2023-04-08T11:13:35;100039.41;;;16.67;46.12
44839;BME280;30576;42.098;24.876;2023-04-08T11:16:02;100034.31;;;16.86;48.59
44839;BME280;30576;42.098;24.876;2023-04-08T11:18:29;100034.44;;;17.32;45.25
44839;BME280;30576;42.098;24.876;2023-04-08T11:20:55;100031.75;;;17.56;44.78
44839;BME280;30576;42.098;24.876;2023-04-08T11:23:21;100026.88;;;17.91;44.39
44839;BME280;30576;42.098;24.876;2023-04-08T11:25:49;100018.00;;;18.12;43.02
44839;BME280;30576;42.098;24.876;2023-04-08T11:28:14;100026.81;;;17.68;43.74
44839;BME280;30576;42.098;24.876;2023-04-08T11:30:41;100017.59;;;17.77;43.96
44839;BME280;30576;42.098;24.876;2023-04-08T11:33:07;100012.06;;;17.60;43.91
44839;BME280;30576;42.098;24.876;2023-04-08T11:35:32;100016.00;;;17.26;44.38
44839;BME280;30576;42.098;24.876;2023-04-08T11:37:58;100006.03;;;17.31;45.98
44839;BME280;30576;42.098;24.876;2023-04-08T11:40:23;100007.00;;;17.05;44.97
44839;BME280;30576;42.098;24.876;2023-04-08T11:42:52;100002.19;;;16.91;44.06
44839;BME280;30576;42.098;24.876;2023-04-08T11:45:18;100008.69;;;16.30;45.29
44839;BME280;30576;42.098;24.876;2023-04-08T11:47:44;100001.09;;;16.44;47.51
44839;BME280;30576;42.098;24.876;2023-04-08T11:50:11;100002.06;;;16.42;47.53
44839;BME280;30576;42.098;24.876;2023-04-08T11:52:40;99994.91;;;16.69;46.23
44839;BME280;30576;42.098;24.876;2023-04-08T11:55:05;99992.09;;;16.74;45.75
44839;BME280;30576;42.098;24.876;2023-04-08T11:57:31;99991.28;;;16.97;45.30
44839;BME280;30576;42.098;24.876;2023-04-08T11:59:56;99983.06;;;17.27;44.99
44839;BME280;30576;42.098;24.876;2023-04-08T12:02:22;99981.00;;;17.35;43.26
44839;BME280;30576;42.098;24.876;2023-04-08T12:04:47;99981.56;;;16.96;45.01
44839;BME280;30576;42.098;24.876;2023-04-08T12:07:13;99968.13;;;16.99;44.88
44839;BME280;30576;42.098;24.876;2023-04-08T12:09:38;99968.88;;;16.77;45.80
44839;BME280;30576;42.098;24.876;2023-04-08T12:12:03;99966.81;;;16.86;45.97
44839;BME280;30576;42.098;24.876;2023-04-08T12:14:29;99959.22;;;17.00;46.76
44839;BME280;30576;42.098;24.876;2023-04-08T12:16:54;99964.31;;;16.56;46.22
44839;BME280;30576;42.098;24.876;2023-04-08T12:19:20;99968.13;;;16.49;46.89
44839;BME280;30576;42.098;24.876;2023-04-08T12:21:45;99954.88;;;16.47;46.23
44839;BME280;30576;42.098;24.876;2023-04-08T12:24:10;99954.94;;;16.45;46.56
44839;BME280;30576;42.098;24.876;2023-04-08T12:26:36;99944.94;;;16.76;44.69
44839;BME280;30576;42.098;24.876;2023-04-08T12:29:01;99950.94;;;16.82;48.04
44839;BME280;30576;42.098;24.876;2023-04-08T12:31:27;99951.69;;;16.36;46.29
44839;BME280;30576;42.098;24.876;2023-04-08T12:33:53;99940.97;;;16.64;45.32
44839;BME280;30576;42.098;24.876;2023-04-08T12:36:19;99936.31;;;16.69;45.85
44839;BME280;30576;42.098;24.876;2023-04-08T12:38:44;99939.28;;;16.61;46.17
44839;BME280;30576;42.098;24.876;2023-04-08T12:41:09;99934.22;;;16.28;46.81
44839;BME280;30576;42.098;24.876;2023-04-08T12:43:35;99932.63;;;16.48;45.53
44839;BME280;30576;42.098;24.876;2023-04-08T12:46:00;99928.75;;;16.82;44.25
44839;BME280;30576;42.098;24.876;2023-04-08T12:48:27;99930.88;;;16.97;43.86
44839;BME280;30576;42.098;24.876;2023-04-08T12:50:52;99923.50;;;16.55;45.35
44839;BME280;30576;42.098;24.876;2023-04-08T12:53:17;99921.41;;;16.40;45.62
44839;BME280;30576;42.098;24.876;2023-04-08T12:55:43;99917.41;;;16.77;46.08